createdAt,value
2022-10-17T00:00:38.359Z,99101.50
2022-10-17T00:03:04.708Z,99096.22
2022-10-17T00:05:31.229Z,99096.22
2022-10-17T00:07:57.544Z,99102.34
2022-10-17T00:10:24.469Z,99094.91
2022-10-17T00:12:52.030Z,99091.19
2022-10-17T00:15:20.782Z,99095.28
2022-10-17T00:17:47.771Z,99107.81
2022-10-17T00:20:14.996Z,99100.38
2022-10-17T00:22:42.132Z,99100.38
2022-10-17T00:25:08.990Z,99111.34
2022-10-17T00:27:37.197Z,99111.16
2022-10-17T00:30:04.544Z,99108.09
2022-10-17T00:32:31.289Z,99104.91
2022-10-17T00:34:58.690Z,99114.03
2022-10-17T00:37:25.822Z,99112.06
2022-10-17T00:39:52.371Z,99109.19
2022-10-17T00:42:18.817Z,99116.19
2022-10-17T00:44:47.449Z,99112.19
2022-10-17T00:47:19.461Z,99117.84
2022-10-17T00:49:47.366Z,99110.78
2022-10-17T00:52:23.354Z,99110.50
2022-10-17T00:54:58.468Z,99118.75
2022-10-17T00:57:26.929Z,99119.50
2022-10-17T00:59:56.615Z,99112.72
2022-10-17T01:02:23.219Z,99116.19
2022-10-17T01:04:51.252Z,99123.25
2022-10-17T01:07:17.877Z,99123.25
2022-10-17T01:09:45.344Z,99120.63
2022-10-17T01:12:12.068Z,99123.63
2022-10-17T01:15:09.632Z,99128.72
2022-10-17T01:17:37.320Z,99131.28
2022-10-17T01:20:12.586Z,99127.41
2022-10-17T01:23:11.769Z,99129.16
2022-10-17T01:25:56.701Z,99133.59
2022-10-17T01:29:05.396Z,99143.44
2022-10-17T01:31:35.605Z,99126.72
2022-10-17T01:34:20.642Z,99127.94
2022-10-17T01:36:56.517Z,99130.25
2022-10-17T01:39:46.963Z,99126.19
2022-10-17T01:42:42.425Z,99128.78
2022-10-17T01:45:19.585Z,99125.81
2022-10-17T01:47:47.564Z,99116.44
2022-10-17T01:50:20.287Z,99123.56
2022-10-17T01:52:52.970Z,99127.56
2022-10-17T01:55:32.163Z,99134.88
2022-10-17T01:58:09.074Z,99120.66
2022-10-17T02:00:37.864Z,99112.13
2022-10-17T02:03:07.619Z,99108.88
2022-10-17T02:05:38.747Z,99105.44
2022-10-17T02:08:06.028Z,99107.13
2022-10-17T02:10:38.627Z,99111.66
2022-10-17T02:13:38.189Z,99107.78
2022-10-17T02:16:28.270Z,99111.28
2022-10-17T02:19:23.867Z,99108.72
2022-10-17T02:22:14.586Z,99103.97
2022-10-17T02:24:41.133Z,99109.72
2022-10-17T02:27:07.453Z,99101.56
2022-10-17T02:29:50.059Z,99099.69
2022-10-17T02:32:25.045Z,99105.56
2022-10-17T02:34:55.815Z,99102.09
2022-10-17T02:37:27.357Z,99093.94
2022-10-17T02:39:57.675Z,99095.16
2022-10-17T02:42:26.226Z,99099.53
2022-10-17T02:44:54.871Z,99094.97
2022-10-17T02:47:37.865Z,99098.81
2022-10-17T02:50:05.495Z,99099.25
2022-10-17T02:52:37.037Z,99099.91
2022-10-17T02:55:19.933Z,99098.88
2022-10-17T02:57:54.220Z,99096.47
2022-10-17T03:00:23.438Z,99109.19
2022-10-17T03:02:52.270Z,99099.38
2022-10-17T03:05:22.886Z,99109.56
2022-10-17T03:07:49.604Z,99106.59
2022-10-17T03:10:16.388Z,99108.09
2022-10-17T03:12:42.959Z,99106.22
2022-10-17T03:15:11.087Z,99110.13
2022-10-17T03:17:38.189Z,99113.50
2022-10-17T03:20:05.939Z,99115.25
2022-10-17T03:22:32.884Z,99120.72
2022-10-17T03:25:01.298Z,99119.78
2022-10-17T03:27:28.323Z,99116.78
2022-10-17T03:29:54.947Z,99121.03
2022-10-17T03:32:21.391Z,99118.25
2022-10-17T03:34:48.625Z,99122.69
2022-10-17T03:37:15.489Z,99120.56
2022-10-17T03:39:42.161Z,99122.72
2022-10-17T03:42:08.853Z,99129.38
2022-10-17T03:44:35.308Z,99125.75
2022-10-17T03:47:01.743Z,99127.56
2022-10-17T03:49:28.132Z,99131.16
2022-10-17T03:51:54.466Z,99134.88
2022-10-17T03:54:20.853Z,99136.91
2022-10-17T03:56:47.422Z,99130.91
2022-10-17T03:59:17.200Z,99141.56
2022-10-17T04:01:50.974Z,99146.78
2022-10-17T04:04:18.517Z,99142.78
2022-10-17T04:06:45.072Z,99149.25
2022-10-17T04:09:11.544Z,99139.84
2022-10-17T04:11:53.531Z,99142.44
2022-10-17T04:14:21.472Z,99144.66
2022-10-17T04:16:47.885Z,99147.03
2022-10-17T04:19:20.428Z,99150.09
2022-10-17T04:21:47.919Z,99143.94
2022-10-17T04:24:14.919Z,99155.47
2022-10-17T04:26:51.128Z,99158.16
2022-10-17T04:29:18.878Z,99153.06
2022-10-17T04:31:48.353Z,99159.06
2022-10-17T04:34:22.108Z,99153.44
2022-10-17T04:36:48.754Z,99157.56
2022-10-17T04:39:15.393Z,99163.47
2022-10-17T04:41:42.349Z,99153.06
2022-10-17T04:44:10.594Z,99157.63
2022-10-17T04:46:40.749Z,99159.66
2022-10-17T04:49:07.241Z,99161.16
2022-10-17T04:51:33.573Z,99159.13
2022-10-17T04:54:13.723Z,99157.09
2022-10-17T04:56:42.677Z,99157.09
2022-10-17T04:59:09.161Z,99155.91
2022-10-17T05:01:37.643Z,99153.94
2022-10-17T05:04:04.079Z,99154.41
2022-10-17T05:06:31.452Z,99157.28
2022-10-17T05:09:16.325Z,99168.88
2022-10-17T05:11:43.553Z,99173.94
2022-10-17T05:14:11.082Z,99178.22
2022-10-17T05:16:38.037Z,99178.72
2022-10-17T05:19:04.844Z,99184.78
2022-10-17T05:21:37.398Z,99188.19
2022-10-17T05:24:09.111Z,99184.91
2022-10-17T05:26:35.630Z,99184.66
2022-10-17T05:29:03.042Z,99187.06
2022-10-17T05:31:32.075Z,99178.72
2022-10-17T05:34:02.653Z,99188.69
2022-10-17T05:36:31.572Z,99188.19
2022-10-17T05:38:59.537Z,99190.56
2022-10-17T05:41:27.263Z,99186.03
2022-10-17T05:43:53.879Z,99190.94
2022-10-17T05:46:29.925Z,99192.84
2022-10-17T05:48:56.397Z,99196.41
2022-10-17T05:51:22.757Z,99201.28
2022-10-17T05:53:49.181Z,99213.06
2022-10-17T05:56:22.078Z,99210.00
2022-10-17T05:58:50.886Z,99216.41
2022-10-17T06:01:38.456Z,99223.75
2022-10-17T06:04:05.096Z,99211.81
2022-10-17T06:06:31.580Z,99217.66
2022-10-17T06:08:58.116Z,99225.09
2022-10-17T06:11:29.873Z,99223.41
2022-10-17T06:13:56.390Z,99218.03
2022-10-17T06:16:25.298Z,99213.34
2022-10-17T06:18:51.875Z,99219.59
2022-10-17T06:21:25.157Z,99218.03
2022-10-17T06:23:54.281Z,99224.78
2022-10-17T06:26:33.832Z,99239.44
2022-10-17T06:29:00.624Z,99224.78
2022-10-17T06:31:31.684Z,99248.50
2022-10-17T06:33:58.205Z,99242.56
2022-10-17T06:36:24.562Z,99254.34
2022-10-17T06:38:51.262Z,99257.94
2022-10-17T06:41:27.425Z,99271.59
2022-10-17T06:43:54.362Z,99264.34
2022-10-17T06:46:39.749Z,99267.34
2022-10-17T06:49:10.204Z,99276.06
2022-10-17T06:51:56.897Z,99275.97
2022-10-17T06:54:32.630Z,99277.91
2022-10-17T06:57:10.251Z,99280.91
2022-10-17T06:59:49.372Z,99280.91
2022-10-17T07:02:20.418Z,99294.69
2022-10-17T07:04:47.666Z,99290.97
2022-10-17T07:07:14.053Z,99287.75
2022-10-17T07:09:41.441Z,99287.63
2022-10-17T07:12:08.485Z,99290.47
2022-10-17T07:14:35.778Z,99289.75
2022-10-17T07:17:02.404Z,99294.78
2022-10-17T07:19:31.333Z,99299.13
2022-10-17T07:21:57.727Z,99287.94
2022-10-17T07:24:25.084Z,99296.13
2022-10-17T07:26:57.006Z,99296.13
2022-10-17T07:29:23.400Z,99293.56
2022-10-17T07:32:25.197Z,99288.75
2022-10-17T07:34:51.641Z,99292.94
2022-10-17T07:37:18.104Z,99300.50
2022-10-17T07:39:51.255Z,99301.06
2022-10-17T07:42:17.727Z,99299.22
2022-10-17T07:44:47.275Z,99296.66
2022-10-17T07:47:13.844Z,99295.66
2022-10-17T07:49:45.152Z,99312.13
2022-10-17T07:52:13.390Z,99312.50
2022-10-17T07:54:40.059Z,99301.59
2022-10-17T07:57:06.922Z,99305.31
2022-10-17T07:59:34.645Z,99305.81
2022-10-17T08:02:01.219Z,99300.03
2022-10-17T08:04:27.817Z,99308.94
2022-10-17T08:07:05.395Z,99307.97
2022-10-17T08:09:39.499Z,99315.72
2022-10-17T08:12:05.906Z,99320.22
2022-10-17T08:14:32.364Z,99323.13
2022-10-17T08:16:58.777Z,99323.44
2022-10-17T08:19:25.426Z,99319.91
2022-10-17T08:21:52.314Z,99317.28
2022-10-17T08:24:18.686Z,99315.94
2022-10-17T08:26:48.247Z,99319.03
2022-10-17T08:29:16.907Z,99319.97
2022-10-17T08:31:47.434Z,99319.34
2022-10-17T08:34:15.770Z,99318.81
2022-10-17T08:36:42.239Z,99309.59
2022-10-17T08:39:08.658Z,99321.06
2022-10-17T08:41:52.255Z,99323.94
2022-10-17T08:44:27.811Z,99322.66
2022-10-17T08:46:59.032Z,99324.84
2022-10-17T08:49:37.514Z,99323.97
2022-10-17T08:52:11.379Z,99319.38
2022-10-17T08:54:45.968Z,99321.78
2022-10-17T08:57:17.435Z,99323.63
2022-10-17T08:59:45.794Z,99323.84
2022-10-17T09:02:43.048Z,99333.16
2022-10-17T09:05:33.908Z,99321.78
2022-10-17T09:08:31.846Z,99311.38
2022-10-17T09:11:13.937Z,99312.00
2022-10-17T09:14:22.024Z,99318.75
2022-10-17T09:17:12.275Z,99322.91
2022-10-17T09:19:51.143Z,99320.88
2022-10-17T09:22:23.825Z,99324.97
2022-10-17T09:24:58.213Z,99330.91
2022-10-17T09:27:36.684Z,99324.13
2022-10-17T09:30:46.726Z,99336.50
2022-10-17T09:33:34.397Z,99335.56
2022-10-17T09:36:13.162Z,99345.22
2022-10-17T09:38:43.317Z,99352.81
2022-10-17T09:41:43.093Z,99351.06
2022-10-17T09:44:21.919Z,99360.09
2022-10-17T09:47:13.314Z,99365.25
2022-10-17T09:49:42.262Z,99358.03
2022-10-17T09:52:16.287Z,99370.06
2022-10-17T09:54:47.982Z,99373.78
2022-10-17T09:57:16.325Z,99372.22
2022-10-17T09:59:56.607Z,99368.63
2022-10-17T10:02:25.161Z,99369.66
2022-10-17T10:05:06.357Z,99373.44
2022-10-17T10:07:37.822Z,99369.69
2022-10-17T10:10:07.718Z,99360.03
2022-10-17T10:12:39.384Z,99370.78
2022-10-17T10:15:32.601Z,99374.53
2022-10-17T10:17:59.115Z,99378.47
2022-10-17T10:20:30.812Z,99376.28
2022-10-17T10:23:18.352Z,99374.13
2022-10-17T10:25:56.142Z,99388.91
2022-10-17T10:28:50.423Z,99394.78
2022-10-17T10:31:26.186Z,99395.31
2022-10-17T10:33:56.805Z,99398.91
2022-10-17T10:36:24.173Z,99405.34
2022-10-17T10:38:54.964Z,99403.19
2022-10-17T10:41:21.657Z,99407.88
2022-10-17T10:43:51.449Z,99404.59
2022-10-17T10:46:27.277Z,99403.03
2022-10-17T10:48:53.685Z,99407.59
2022-10-17T10:51:27.658Z,99412.41
2022-10-17T10:54:16.981Z,99403.47
2022-10-17T10:56:49.894Z,99408.56
2022-10-17T10:59:51.832Z,99411.97
2022-10-17T11:02:36.716Z,99420.50
2022-10-17T11:05:20.699Z,99412.75
2022-10-17T11:07:59.451Z,99412.25
2022-10-17T11:10:46.434Z,99411.31
2022-10-17T11:13:28.989Z,99408.97
2022-10-17T11:16:07.340Z,99406.28
2022-10-17T11:18:42.933Z,99405.22
2022-10-17T11:21:20.615Z,99410.88
2022-10-17T11:23:48.420Z,99416.63
2022-10-17T11:26:39.939Z,99412.38
2022-10-17T11:29:09.405Z,99412.13
2022-10-17T11:31:40.743Z,99414.38
2022-10-17T11:34:19.994Z,99421.19
2022-10-17T11:36:50.997Z,99424.25
2022-10-17T11:39:30.616Z,99416.09
2022-10-17T11:42:09.736Z,99421.47
2022-10-17T11:44:39.456Z,99415.53
2022-10-17T11:47:39.758Z,99427.47
2022-10-17T11:53:20.632Z,99420.84
2022-10-17T11:55:47.794Z,99415.94
2022-10-17T11:58:24.342Z,99408.53
2022-10-17T12:00:55.037Z,99404.19
2022-10-17T12:03:39.694Z,99418.47
2022-10-17T12:06:37.317Z,99404.56
2022-10-17T12:09:51.973Z,99400.97
2022-10-17T12:12:30.662Z,99398.91
2022-10-17T12:15:23.263Z,99395.34
2022-10-17T12:18:02.977Z,99394.06
2022-10-17T12:20:37.166Z,99388.09
2022-10-17T12:23:12.597Z,99394.22
2022-10-17T12:26:09.437Z,99393.94
2022-10-17T12:28:39.510Z,99400.00
2022-10-17T12:31:15.529Z,99400.25
2022-10-17T12:33:49.328Z,99391.88
2022-10-17T12:36:28.103Z,99392.13
2022-10-17T12:39:06.445Z,99388.06
2022-10-17T12:41:39.068Z,99389.66
2022-10-17T12:44:14.986Z,99381.44
2022-10-17T12:47:03.389Z,99382.50
2022-10-17T12:49:37.729Z,99386.84
2022-10-17T12:52:16.206Z,99387.91
2022-10-17T12:55:00.257Z,99393.47
2022-10-17T12:57:41.113Z,99384.94
2022-10-17T13:00:25.207Z,99390.44
2022-10-17T13:02:55.852Z,99393.16
2022-10-17T13:05:34.310Z,99382.06
2022-10-17T13:08:03.693Z,99389.28
2022-10-17T13:10:34.938Z,99379.94
2022-10-17T13:13:20.414Z,99381.66
2022-10-17T13:15:48.458Z,99383.88
2022-10-17T13:18:29.193Z,99384.19
2022-10-17T13:21:26.069Z,99381.41
2022-10-17T13:23:54.227Z,99380.69
2022-10-17T13:26:28.699Z,99367.84
2022-10-17T13:29:13.803Z,99369.94
2022-10-17T13:31:43.123Z,99372.34
2022-10-17T13:34:21.137Z,99370.41
2022-10-17T13:36:50.742Z,99370.41
2022-10-17T13:39:32.042Z,99372.94
2022-10-17T13:42:05.548Z,99377.47
2022-10-17T13:44:37.074Z,99372.00
2022-10-17T13:47:04.305Z,99379.38
2022-10-17T13:49:40.741Z,99367.09
2022-10-17T13:52:14.502Z,99376.25
2022-10-17T13:54:43.045Z,99371.75
2022-10-17T13:57:30.622Z,99371.03
2022-10-17T14:00:09.902Z,99374.06
2022-10-17T14:02:41.879Z,99372.53
2022-10-17T14:05:17.833Z,99371.38
2022-10-17T14:08:21.863Z,99383.50
2022-10-17T14:10:49.762Z,99373.28
2022-10-17T14:13:26.140Z,99379.16
2022-10-17T14:15:53.799Z,99386.00
2022-10-17T14:18:38.683Z,99382.53
2022-10-17T14:24:13.971Z,99371.09
2022-10-17T14:26:51.462Z,99373.31
2022-10-17T14:29:27.002Z,99369.38
2022-10-17T14:32:08.680Z,99369.53
2022-10-17T14:34:40.537Z,99376.63
2022-10-17T14:37:12.818Z,99371.72
2022-10-17T14:39:39.714Z,99378.84
2022-10-17T14:42:06.336Z,99375.88
2022-10-17T14:44:35.378Z,99375.84
2022-10-17T14:47:30.745Z,99385.88
2022-10-17T14:50:06.134Z,99377.16
2022-10-17T14:52:34.581Z,99384.16
2022-10-17T14:55:21.851Z,99380.34
2022-10-17T14:57:48.224Z,99384.19
2022-10-17T15:00:16.654Z,99385.63
2022-10-17T15:02:44.291Z,99386.91
2022-10-17T15:05:13.434Z,99389.50
2022-10-17T15:07:41.002Z,99389.31
2022-10-17T15:10:23.220Z,99386.97
2022-10-17T15:12:57.475Z,99379.22
2022-10-17T15:15:32.340Z,99388.44
2022-10-17T15:17:58.782Z,99379.78
2022-10-17T15:20:27.885Z,99382.81
2022-10-17T15:22:54.652Z,99376.81
2022-10-17T15:25:21.704Z,99379.97
2022-10-17T15:27:48.142Z,99384.84
2022-10-17T15:30:31.681Z,99379.28
2022-10-17T15:32:59.241Z,99377.06
2022-10-17T15:35:27.365Z,99374.78
2022-10-17T15:37:53.923Z,99386.28
2022-10-17T15:40:28.063Z,99379.31
2022-10-17T15:42:56.227Z,99376.19
2022-10-17T15:45:23.455Z,99387.59
2022-10-17T15:47:56.139Z,99378.06
2022-10-17T15:50:23.101Z,99387.28
2022-10-17T15:52:53.294Z,99392.03
2022-10-17T15:55:20.149Z,99382.03
2022-10-17T15:57:48.534Z,99387.91
2022-10-17T16:00:21.456Z,99383.50
2022-10-17T16:02:49.174Z,99390.16
2022-10-17T16:05:26.015Z,99387.72
2022-10-17T16:07:53.608Z,99391.56
2022-10-17T16:10:20.449Z,99400.66
2022-10-17T16:12:49.658Z,99403.34
2022-10-17T16:15:24.895Z,99406.56
2022-10-17T16:17:52.763Z,99402.81
2022-10-17T16:20:20.143Z,99398.66
2022-10-17T16:22:47.387Z,99419.63
2022-10-17T16:25:25.859Z,99414.56
2022-10-17T16:27:55.054Z,99413.50
2022-10-17T16:30:23.415Z,99416.31
2022-10-17T16:32:49.931Z,99416.66
2022-10-17T16:35:22.729Z,99428.03
2022-10-17T16:37:49.232Z,99414.63
2022-10-17T16:40:16.692Z,99418.06
2022-10-17T16:42:44.720Z,99429.38
2022-10-17T16:45:23.261Z,99423.16
2022-10-17T16:47:50.540Z,99431.88
2022-10-17T16:50:17.111Z,99434.00
2022-10-17T16:52:43.614Z,99436.59
2022-10-17T16:55:10.083Z,99440.81
2022-10-17T16:57:36.600Z,99439.56
2022-10-17T17:00:04.903Z,99444.97
2022-10-17T17:02:31.740Z,99451.69
2022-10-17T17:04:58.305Z,99454.25
2022-10-17T17:07:29.483Z,99463.22
2022-10-17T17:09:56.383Z,99468.25
2022-10-17T17:12:22.865Z,99470.50
2022-10-17T17:14:49.277Z,99472.19
2022-10-17T17:17:24.649Z,99474.09
2022-10-17T17:20:02.139Z,99482.63
2022-10-17T17:22:28.464Z,99484.31
2022-10-17T17:24:54.873Z,99498.09
2022-10-17T17:27:21.533Z,99495.59
2022-10-17T17:29:47.981Z,99499.16
2022-10-17T17:32:14.649Z,99505.19
2022-10-17T17:34:41.055Z,99508.28
2022-10-17T17:37:07.379Z,99515.00
2022-10-17T17:39:33.874Z,99507.22
2022-10-17T17:42:00.195Z,99517.03
2022-10-17T17:44:26.626Z,99518.91
2022-10-17T17:46:53.198Z,99520.13
2022-10-17T17:49:19.631Z,99520.53
2022-10-17T17:51:46.575Z,99515.41
2022-10-17T17:54:13.406Z,99521.50
2022-10-17T17:56:39.919Z,99519.56
2022-10-17T17:59:07.048Z,99520.38
2022-10-17T18:01:38.150Z,99531.59
2022-10-17T18:04:08.445Z,99533.66
2022-10-17T18:06:36.152Z,99534.50
2022-10-17T18:09:03.604Z,99536.16
2022-10-17T18:11:30.115Z,99539.28
2022-10-17T18:14:00.749Z,99551.94
2022-10-17T18:16:28.857Z,99545.00
2022-10-17T18:18:55.477Z,99550.25
2022-10-17T18:21:22.239Z,99551.88
2022-10-17T18:23:49.716Z,99543.06
2022-10-17T18:26:16.492Z,99544.00
2022-10-17T18:28:43.779Z,99552.94
2022-10-17T18:31:24.975Z,99547.88
2022-10-17T18:33:53.433Z,99552.72
2022-10-17T18:36:21.401Z,99552.78
2022-10-17T18:38:48.145Z,99544.41
2022-10-17T18:41:17.129Z,99554.34
2022-10-17T18:43:45.145Z,99549.78
2022-10-17T18:46:17.901Z,99550.66
2022-10-17T18:48:46.118Z,99551.31
2022-10-17T18:51:14.868Z,99557.94
2022-10-17T18:53:46.354Z,99558.72
2022-10-17T18:56:13.451Z,99558.31
2022-10-17T18:58:40.689Z,99550.03
2022-10-17T19:01:10.656Z,99547.22
2022-10-17T19:03:37.495Z,99547.75
2022-10-17T19:06:10.132Z,99547.09
2022-10-17T19:08:38.033Z,99552.72
2022-10-17T19:11:12.663Z,99550.53
2022-10-17T19:13:39.997Z,99547.56
2022-10-17T19:16:23.972Z,99553.03
2022-10-17T19:18:57.199Z,99545.91
2022-10-17T19:21:24.677Z,99548.13
2022-10-17T19:24:00.217Z,99544.41
2022-10-17T19:26:28.756Z,99544.91
2022-10-17T19:28:55.281Z,99552.63
2022-10-17T19:31:27.070Z,99555.81
2022-10-17T19:33:55.715Z,99558.81
2022-10-17T19:36:27.593Z,99558.53
2022-10-17T19:38:57.448Z,99561.63
2022-10-17T19:41:24.280Z,99564.06
2022-10-17T19:43:50.934Z,99559.41
2022-10-17T19:46:20.765Z,99553.34
2022-10-17T19:48:49.919Z,99555.41
2022-10-17T19:51:19.720Z,99564.00
2022-10-17T19:53:47.002Z,99569.31
2022-10-17T19:56:13.964Z,99562.69
2022-10-17T19:58:46.758Z,99562.59
2022-10-17T20:01:18.998Z,99557.31
2022-10-17T20:03:46.654Z,99555.44
2022-10-17T20:06:14.094Z,99551.66
2022-10-17T20:08:41.163Z,99556.41
2022-10-17T20:11:13.281Z,99558.44
2022-10-17T20:13:40.628Z,99557.16
2022-10-17T20:16:08.655Z,99557.06
2022-10-17T20:18:35.276Z,99563.84
2022-10-17T20:21:06.539Z,99562.09
2022-10-17T20:23:33.730Z,99555.53
2022-10-17T20:26:13.524Z,99562.44
2022-10-17T20:28:50.098Z,99566.66
2022-10-17T20:31:16.967Z,99570.09
2022-10-17T20:33:43.500Z,99575.22
2022-10-17T20:36:10.995Z,99576.44
2022-10-17T20:38:37.572Z,99582.22
2022-10-17T20:41:05.264Z,99583.91
2022-10-17T20:43:31.721Z,99592.00
2022-10-17T20:46:04.558Z,99592.09
2022-10-17T20:48:37.398Z,99590.75
2022-10-17T20:51:11.370Z,99590.09
2022-10-17T20:53:38.075Z,99594.28
2022-10-17T20:56:24.125Z,99596.06
2022-10-17T20:59:04.774Z,99598.97
2022-10-17T21:01:32.799Z,99593.19
2022-10-17T21:04:10.527Z,99594.56
2022-10-17T21:06:51.264Z,99593.91
2022-10-17T21:09:18.105Z,99596.63
2022-10-17T21:11:44.758Z,99597.28
2022-10-17T21:14:12.045Z,99600.88
2022-10-17T21:16:39.466Z,99600.59
2022-10-17T21:19:06.243Z,99597.59
2022-10-17T21:21:37.547Z,99607.38
2022-10-17T21:24:06.470Z,99604.41
2022-10-17T21:26:34.777Z,99602.72
2022-10-17T21:29:05.805Z,99608.31
2022-10-17T21:31:37.308Z,99609.22
2022-10-17T21:34:13.904Z,99605.13
2022-10-17T21:36:40.848Z,99604.97
2022-10-17T21:41:39.082Z,99602.25
2022-10-17T21:44:08.237Z,99604.59
2022-10-17T21:46:34.621Z,99595.19
2022-10-17T21:49:01.345Z,99595.19
2022-10-17T21:51:28.366Z,99599.06
2022-10-17T21:53:56.738Z,99594.53
2022-10-17T21:56:28.017Z,99591.81
2022-10-17T21:58:54.993Z,99595.47
2022-10-17T22:01:27.277Z,99593.13
2022-10-17T22:04:00.876Z,99594.81
2022-10-17T22:06:45.279Z,99598.72
2022-10-17T22:09:31.810Z,99589.94
2022-10-17T22:11:58.278Z,99588.09
2022-10-17T22:14:27.281Z,99588.09
2022-10-17T22:16:54.266Z,99585.78
2022-10-17T22:19:23.509Z,99584.03
2022-10-17T22:21:50.339Z,99577.97
2022-10-17T22:24:18.870Z,99579.00
2022-10-17T22:26:45.425Z,99572.84
2022-10-17T22:29:12.325Z,99574.06
2022-10-17T22:31:39.671Z,99576.69
2022-10-17T22:34:07.188Z,99569.97
2022-10-17T22:36:34.671Z,99574.63
2022-10-17T22:39:01.690Z,99569.13
2022-10-17T22:41:28.100Z,99564.75
2022-10-17T22:43:54.543Z,99569.59
2022-10-17T22:46:20.868Z,99569.88
2022-10-17T22:48:47.474Z,99562.16
2022-10-17T22:51:14.436Z,99552.75
2022-10-17T22:53:41.083Z,99558.44
2022-10-17T22:56:11.389Z,99558.50
2022-10-17T22:58:38.555Z,99552.75
2022-10-17T23:01:06.363Z,99548.72
2022-10-17T23:03:34.083Z,99546.41
2022-10-17T23:06:00.941Z,99538.09
2022-10-17T23:08:28.052Z,99543.50
2022-10-17T23:10:54.526Z,99542.66
2022-10-17T23:13:22.226Z,99542.31
2022-10-17T23:15:52.616Z,99543.13
2022-10-17T23:18:19.736Z,99539.50
2022-10-17T23:20:46.256Z,99539.03
2022-10-17T23:23:12.596Z,99537.84
2022-10-17T23:25:39.007Z,99525.44
2022-10-17T23:28:08.029Z,99521.53
2022-10-17T23:30:35.438Z,99519.94
2022-10-17T23:33:01.924Z,99521.84
2022-10-17T23:35:28.244Z,99501.03
2022-10-17T23:37:54.829Z,99508.97
2022-10-17T23:40:21.168Z,99517.06
2022-10-17T23:42:47.618Z,99506.72
2022-10-17T23:45:14.055Z,99508.59
2022-10-17T23:47:40.392Z,99512.59
2022-10-17T23:50:07.158Z,99517.16
2022-10-17T23:52:33.971Z,99507.09
2022-10-17T23:55:00.362Z,99499.34
2022-10-17T23:57:26.972Z,99510.63
2022-10-17T23:59:53.532Z,99507.63
